Time;durP1;ratioP1;P1;durP2;ratioP2;P2;SDS_P1;SDS_P2;PMS_P1;PMS_P2;Temp;Humidity;BMP_temperature;BMP_pressure;BME280_temperature;BME280_humidity;BME280_pressure;Samples;Min_cycle;Max_cycle;Signal;HPM_P1;HPM_P2
2023/02/12 00:00:39;;;;;;;45.77;37.07;;;7.00;99.90;;;;;;5019494;28;20416;-46
2023/02/12 00:03:05;;;;;;;43.07;36.73;;;7.00;99.90;;;;;;5019054;28;20810;-46
2023/02/12 00:05:31;;;;;;;44.73;37.60;;;7.00;99.90;;;;;;5019460;28;20416;-47
2023/02/12 00:07:57;;;;;;;44.10;38.03;;;6.90;99.90;;;;;;5019554;28;20664;-45
2023/02/12 00:10:23;;;;;;;46.00;36.90;;;6.90;99.90;;;;;;5018922;28;20218;-44
2023/02/12 00:12:49;;;;;;;46.13;38.30;;;6.90;99.90;;;;;;5018674;28;20327;-42
2023/02/12 00:15:15;;;;;;;44.80;38.23;;;6.90;99.90;;;;;;5019150;28;20919;-44
2023/02/12 00:17:40;;;;;;;47.37;37.60;;;7.00;99.90;;;;;;5018007;28;20628;-43
2023/02/12 00:20:07;;;;;;;47.53;38.60;;;7.00;99.90;;;;;;5018562;28;20277;-48
2023/02/12 00:22:33;;;;;;;47.40;37.70;;;7.00;99.90;;;;;;5017631;28;20242;-44
2023/02/12 00:24:59;;;;;;;50.67;39.07;;;7.00;99.90;;;;;;5019417;28;20488;-45
2023/02/12 00:27:25;;;;;;;47.20;38.50;;;6.90;99.90;;;;;;5019671;28;20424;-46
2023/02/12 00:29:50;;;;;;;49.83;38.60;;;6.90;99.90;;;;;;5019081;28;20914;-47
2023/02/12 00:32:19;;;;;;;48.60;37.90;;;6.90;99.90;;;;;;5018752;28;20599;-42
2023/02/12 00:34:47;;;;;;;54.30;40.27;;;6.90;99.90;;;;;;5018596;28;20229;-48
2023/02/12 00:37:13;;;;;;;48.33;38.33;;;6.80;99.90;;;;;;5021301;28;20413;-48
2023/02/12 00:39:39;;;;;;;50.20;39.40;;;6.90;99.90;;;;;;5022315;28;21033;-44
2023/02/12 00:42:05;;;;;;;50.60;38.47;;;6.90;99.90;;;;;;5022034;28;20178;-42
2023/02/12 00:44:31;;;;;;;50.07;39.20;;;7.00;99.90;;;;;;5021778;28;20843;-50
2023/02/12 00:46:56;;;;;;;50.93;39.63;;;7.00;99.90;;;;;;5021832;28;20499;-48
2023/02/12 00:49:23;;;;;;;50.53;38.90;;;6.90;99.90;;;;;;5021662;28;20838;-46
2023/02/12 00:51:48;;;;;;;48.30;36.90;;;7.00;99.90;;;;;;5021924;28;20483;-43
2023/02/12 00:54:14;;;;;;;53.20;38.83;;;7.00;99.90;;;;;;5022452;28;20504;-46
2023/02/12 00:56:40;;;;;;;50.53;37.90;;;7.00;99.90;;;;;;5021795;28;20185;-50
2023/02/12 00:59:06;;;;;;;47.27;37.10;;;7.10;99.90;;;;;;5022208;28;20174;-44
2023/02/12 01:01:31;;;;;;;46.50;38.27;;;7.10;99.90;;;;;;5021735;28;20183;-49
2023/02/12 01:03:57;;;;;;;48.23;36.40;;;7.00;99.90;;;;;;5022111;28;20229;-45
2023/02/12 01:06:23;;;;;;;51.87;38.80;;;7.00;99.90;;;;;;5022135;28;20182;-42
2023/02/12 01:08:52;;;;;;;56.10;39.27;;;7.00;99.90;;;;;;5020081;28;20270;-47
2023/02/12 01:11:19;;;;;;;47.23;36.73;;;7.00;99.90;;;;;;5020174;28;20980;-43
2023/02/12 01:13:45;;;;;;;50.70;37.77;;;7.00;99.90;;;;;;5021537;28;20762;-45
2023/02/12 01:16:16;;;;;;;47.33;36.80;;;7.00;99.90;;;;;;5020163;28;20432;-44
2023/02/12 01:18:42;;;;;;;49.83;37.60;;;7.10;99.90;;;;;;5020240;28;20190;-47
2023/02/12 01:21:09;;;;;;;49.30;38.30;;;7.00;99.90;;;;;;5021955;28;20421;-46
2023/02/12 01:23:35;;;;;;;49.00;37.10;;;7.00;99.90;;;;;;5021294;28;20488;-48
2023/02/12 01:26:01;;;;;;;52.17;37.17;;;7.10;99.90;;;;;;5022350;28;20413;-45
2023/02/12 01:28:26;;;;;;;52.23;38.67;;;7.10;99.90;;;;;;5020770;28;20189;-44
2023/02/12 01:30:52;;;;;;;51.70;39.67;;;7.10;99.90;;;;;;5020455;28;20191;-44
2023/02/12 01:33:19;;;;;;;52.17;38.67;;;7.10;99.90;;;;;;5020770;28;20274;-45
2023/02/12 01:35:45;;;;;;;50.05;38.08;;;7.10;99.90;;;;;;5021204;28;20218;-46
2023/02/12 01:38:11;;;;;;;46.70;35.67;;;7.20;99.90;;;;;;5021002;28;20261;-47
2023/02/12 01:40:36;;;;;;;49.33;38.90;;;7.20;99.90;;;;;;5020847;28;20225;-48
2023/02/12 01:43:03;;;;;;;52.53;38.67;;;7.20;99.90;;;;;;5020357;28;20571;-44
2023/02/12 01:45:52;;;;;;;46.60;35.70;;;7.20;99.90;;;;;;5021396;28;20269;-48
2023/02/12 01:48:22;;;;;;;45.10;36.17;;;7.20;99.90;;;;;;5019373;28;20939;-48
2023/02/12 01:50:49;;;;;;;48.93;37.40;;;7.20;99.90;;;;;;5020512;28;20526;-42
2023/02/12 01:53:19;;;;;;;48.00;36.63;;;7.20;99.90;;;;;;5020453;28;20769;-47
2023/02/12 01:55:51;;;;;;;46.78;36.33;;;7.10;99.90;;;;;;5020775;28;20429;-44
2023/02/12 01:58:17;;;;;;;46.07;35.93;;;7.10;99.90;;;;;;5020233;28;20190;-48
2023/02/12 02:00:43;;;;;;;51.07;37.80;;;7.10;99.90;;;;;;5020520;28;20460;-45
2023/02/12 02:03:09;;;;;;;51.72;38.50;;;7.10;99.90;;;;;;5020393;28;20546;-48
2023/02/12 02:05:40;;;;;;;48.73;37.37;;;7.10;99.90;;;;;;5020681;28;20738;-47
2023/02/12 02:08:05;;;;;;;43.57;35.27;;;7.20;99.90;;;;;;5018832;28;20683;-48
2023/02/12 02:10:31;;;;;;;45.03;36.13;;;7.20;99.90;;;;;;5020090;28;20512;-49
2023/02/12 02:16:01;;;;;;;46.10;36.97;;;7.10;99.90;;;;;;5007890;28;20194;-45
2023/02/12 02:18:43;;;;;;;48.37;36.93;;;7.20;99.90;;;;;;5018811;28;21806;-45
2023/02/12 02:21:45;;;;;;;46.27;36.80;;;7.20;99.90;;;;;;5020560;28;20904;-46
2023/02/12 02:24:55;;;;;;;47.47;36.43;;;7.20;99.90;;;;;;5018449;28;20471;-46
2023/02/12 02:27:47;;;;;;;46.23;34.40;;;7.20;99.90;;;;;;5019039;28;21029;-49
2023/02/12 02:30:24;;;;;;;42.93;35.47;;;7.20;99.90;;;;;;5000107;28;20803;-43
2023/02/12 02:33:19;;;;;;;47.93;36.97;;;7.20;99.90;;;;;;5019524;28;20469;-44
2023/02/12 02:35:53;;;;;;;46.20;36.03;;;7.20;99.90;;;;;;5015539;28;20476;-43
2023/02/12 02:38:28;;;;;;;45.22;36.72;;;7.20;99.90;;;;;;5019608;28;20439;-45
2023/02/12 02:41:00;;;;;;;43.70;35.00;;;7.20;99.90;;;;;;5020120;28;20196;-44
2023/02/12 02:43:33;;;;;;;45.03;36.10;;;7.30;99.90;;;;;;5019504;28;20469;-43
2023/02/12 02:46:05;;;;;;;46.53;36.30;;;7.20;99.90;;;;;;5019922;28;20491;-44
2023/02/12 02:48:42;;;;;;;45.43;35.23;;;7.20;99.90;;;;;;5019039;28;20428;-47
2023/02/12 02:51:17;;;;;;;50.57;35.83;;;7.10;99.90;;;;;;5019226;28;20579;-46
2023/02/12 02:53:51;;;;;;;49.20;36.47;;;7.20;99.90;;;;;;5019360;28;20432;-43
2023/02/12 02:56:20;;;;;;;45.23;36.37;;;7.20;99.90;;;;;;5017980;28;20467;-43
2023/02/12 02:58:56;;;;;;;49.30;36.97;;;7.10;99.90;;;;;;5018003;28;20911;-45
2023/02/12 03:01:37;;;;;;;51.20;37.33;;;7.20;99.90;;;;;;5018067;28;20437;-44
2023/02/12 03:04:26;;;;;;;46.03;35.87;;;7.20;99.90;;;;;;5019510;28;20465;-49
2023/02/12 03:07:18;;;;;;;47.20;35.60;;;7.20;99.90;;;;;;5019332;28;20908;-45
2023/02/12 03:09:49;;;;;;;49.57;35.50;;;7.10;99.90;;;;;;5014598;28;20756;-45
2023/02/12 03:12:47;;;;;;;49.17;36.20;;;7.10;99.90;;;;;;5019035;28;20481;-49
2023/02/12 03:15:20;;;;;;;51.87;38.00;;;7.10;99.90;;;;;;5019145;28;21162;-48
2023/02/12 03:17:48;;;;;;;49.53;37.08;;;7.10;99.90;;;;;;5018944;28;20444;-46
2023/02/12 03:20:21;;;;;;;49.23;35.80;;;7.10;99.90;;;;;;5019107;28;20658;-44
2023/02/12 03:23:00;;;;;;;51.97;36.90;;;7.10;99.90;;;;;;5019338;28;20461;-43
2023/02/12 03:25:48;;;;;;;50.27;35.77;;;7.10;99.90;;;;;;5018377;28;20483;-49
2023/02/12 03:28:21;;;;;;;51.08;36.90;;;7.10;99.90;;;;;;5018940;28;20992;-48
2023/02/12 03:30:51;;;;;;;51.13;37.05;;;7.10;99.90;;;;;;5018859;28;20209;-45
2023/02/12 03:33:21;;;;;;;52.87;37.70;;;7.10;99.90;;;;;;5019235;28;20554;-48
2023/02/12 03:36:05;;;;;;;46.20;35.30;;;7.10;99.90;;;;;;5018868;28;20441;-45
2023/02/12 03:38:54;;;;;;;47.90;35.22;;;7.10;99.90;;;;;;5019135;28;20472;-46
2023/02/12 03:41:28;;;;;;;46.67;35.53;;;7.10;99.90;;;;;;5019076;28;20186;-49
2023/02/12 03:44:35;;;;;;;50.93;37.47;;;7.10;99.90;;;;;;5019158;28;20452;-47
2023/02/12 03:47:10;;;;;;;49.30;36.17;;;7.10;99.90;;;;;;5010068;28;20448;-46
2023/02/12 03:50:00;;;;;;;52.72;36.70;;;7.10;99.90;;;;;;5019165;28;20688;-43
2023/02/12 03:52:28;;;;;;;48.40;35.10;;;7.00;99.90;;;;;;5019023;28;20182;-43
2023/02/12 03:54:53;;;;;;;51.03;36.37;;;7.10;99.90;;;;;;5017710;28;20432;-49
2023/02/12 03:57:23;;;;;;;46.90;34.90;;;7.00;99.90;;;;;;5019653;28;20914;-44
2023/02/12 03:59:49;;;;;;;52.93;37.13;;;7.10;99.90;;;;;;5018957;28;20186;-46
2023/02/12 04:02:17;;;;;;;52.17;35.70;;;7.10;99.90;;;;;;5018618;28;21010;-48
2023/02/12 04:04:44;;;;;;;54.92;36.67;;;7.10;99.90;;;;;;5018580;28;20430;-45
2023/02/12 04:07:10;;;;;;;51.17;36.00;;;7.10;99.90;;;;;;5018929;28;20294;-48
2023/02/12 04:09:37;;;;;;;52.20;37.22;;;7.10;99.90;;;;;;5018607;28;20488;-45
2023/02/12 04:12:19;;;;;;;55.00;35.90;;;7.00;99.90;;;;;;5021192;28;20660;-44
2023/02/12 04:15:02;;;;;;;54.13;35.70;;;7.10;99.90;;;;;;5021393;28;20191;-46
2023/02/12 04:17:49;;;;;;;49.47;35.97;;;7.20;99.90;;;;;;5021940;28;20487;-45
2023/02/12 04:20:33;;;;;;;48.80;34.50;;;7.10;99.90;;;;;;5022555;28;20179;-44
2023/02/12 04:23:22;;;;;;;50.67;35.67;;;7.10;99.90;;;;;;5022657;28;20542;-47
2023/02/12 04:26:09;;;;;;;51.47;36.13;;;7.10;99.90;;;;;;5022618;28;20828;-45
2023/02/12 04:28:48;;;;;;;47.35;36.25;;;7.10;99.90;;;;;;5022442;28;20204;-50
2023/02/12 04:31:28;;;;;;;53.30;37.00;;;7.10;99.90;;;;;;5021924;28;20664;-50
2023/02/12 04:34:08;;;;;;;54.60;36.35;;;7.00;99.90;;;;;;5022733;28;20432;-44
2023/02/12 04:36:48;;;;;;;55.15;38.00;;;7.10;99.90;;;;;;5021976;28;20187;-46
2023/02/12 04:39:22;;;;;;;51.08;36.30;;;7.10;99.90;;;;;;5022415;28;20601;-44
2023/02/12 04:41:48;;;;;;;54.40;38.33;;;7.10;99.90;;;;;;5022016;28;20190;-45
2023/02/12 04:44:21;;;;;;;57.55;38.80;;;7.00;99.90;;;;;;5021301;28;20972;-43
2023/02/12 04:46:47;;;;;;;52.70;36.87;;;7.10;99.90;;;;;;5022245;28;20721;-49
2023/02/12 04:49:17;;;;;;;53.50;38.37;;;7.10;99.90;;;;;;5022700;28;20714;-47
2023/02/12 04:51:43;;;;;;;52.87;36.10;;;7.10;99.90;;;;;;5022007;28;20179;-44
2023/02/12 04:54:09;;;;;;;56.87;37.80;;;7.00;99.90;;;;;;5021505;28;20425;-47
2023/02/12 04:56:35;;;;;;;55.33;37.30;;;7.10;99.90;;;;;;5021662;28;20984;-49
2023/02/12 04:59:00;;;;;;;57.17;38.90;;;7.00;99.90;;;;;;5021782;28;20897;-49
2023/02/12 05:01:26;;;;;;;57.20;39.50;;;7.10;99.90;;;;;;5021587;28;20197;-48
2023/02/12 05:03:52;;;;;;;55.20;37.10;;;7.00;99.90;;;;;;5022090;28;20248;-44
2023/02/12 05:06:18;;;;;;;50.03;36.47;;;7.10;99.90;;;;;;5021398;28;20190;-47
2023/02/12 05:08:43;;;;;;;54.80;38.77;;;7.10;99.90;;;;;;5021460;28;20281;-44
2023/02/12 05:11:10;;;;;;;51.80;35.70;;;7.10;99.90;;;;;;5021207;28;20492;-47
2023/02/12 05:13:36;;;;;;;53.77;37.10;;;7.10;99.90;;;;;;5020697;28;20853;-47
2023/02/12 05:16:06;;;;;;;55.93;37.63;;;7.10;99.90;;;;;;5035277;28;20457;-43
2023/02/12 05:18:33;;;;;;;53.80;35.97;;;7.10;99.90;;;;;;5021583;28;20448;-45
2023/02/12 05:21:00;;;;;;;56.97;37.40;;;7.10;99.90;;;;;;5021648;28;20533;-42
2023/02/12 05:23:32;;;;;;;56.07;38.00;;;7.10;99.90;;;;;;5020458;28;20472;-44
2023/02/12 05:25:59;;;;;;;56.33;37.93;;;7.10;99.90;;;;;;5021340;28;20409;-43
2023/02/12 05:28:34;;;;;;;54.97;37.33;;;7.10;99.90;;;;;;5020523;28;20512;-45
2023/02/12 05:31:02;;;;;;;57.80;40.33;;;7.10;99.90;;;;;;5019041;28;20293;-46
2023/02/12 05:33:27;;;;;;;59.93;38.53;;;7.10;99.90;;;;;;5021673;28;20425;-44
2023/02/12 05:35:54;;;;;;;61.30;40.30;;;7.10;99.90;;;;;;5021297;28;20439;-48
2023/02/12 05:38:20;;;;;;;60.70;38.60;;;7.00;99.90;;;;;;5020301;28;20684;-46
2023/02/12 05:40:46;;;;;;;57.70;39.43;;;7.00;99.90;;;;;;5021191;28;20432;-48
2023/02/12 05:43:12;;;;;;;56.60;37.37;;;7.00;99.90;;;;;;5019860;28;20796;-44
2023/02/12 05:45:40;;;;;;;54.87;37.37;;;7.00;99.90;;;;;;5020516;28;20187;-48
2023/02/12 05:48:06;;;;;;;59.57;37.93;;;7.00;99.90;;;;;;5020217;28;20437;-46
2023/02/12 05:50:32;;;;;;;59.75;38.67;;;7.00;99.90;;;;;;5020411;28;20468;-47
2023/02/12 05:53:01;;;;;;;53.83;37.65;;;7.00;99.90;;;;;;5020551;28;20187;-47
2023/02/12 05:55:27;;;;;;;55.88;36.88;;;7.00;99.90;;;;;;5020714;28;20657;-44
2023/02/12 05:57:53;;;;;;;53.30;37.00;;;7.00;99.90;;;;;;5020646;28;20186;-43
2023/02/12 06:00:19;;;;;;;54.97;37.60;;;7.00;99.90;;;;;;5019685;28;20193;-46
2023/02/12 06:02:44;;;;;;;56.80;38.17;;;7.00;99.90;;;;;;5020406;28;20984;-48
2023/02/12 06:05:10;;;;;;;53.90;37.37;;;7.00;99.90;;;;;;5020513;28;20775;-47
2023/02/12 06:07:36;;;;;;;53.13;36.73;;;7.00;99.90;;;;;;5020348;28;20279;-44
2023/02/12 06:10:01;;;;;;;54.13;37.70;;;7.00;99.90;;;;;;5020692;28;20257;-48
2023/02/12 06:12:27;;;;;;;55.50;37.70;;;7.00;99.90;;;;;;5020380;28;20723;-46
2023/02/12 06:14:52;;;;;;;52.20;37.07;;;7.00;99.90;;;;;;5019585;28;20191;-47
2023/02/12 06:17:18;;;;;;;61.07;40.07;;;7.00;99.90;;;;;;5020562;28;20193;-47
2023/02/12 06:19:43;;;;;;;57.47;39.00;;;7.00;99.90;;;;;;5019375;28;20201;-47
2023/02/12 06:22:09;;;;;;;59.70;38.73;;;7.00;99.90;;;;;;5020250;28;20575;-44
2023/02/12 06:24:36;;;;;;;57.00;39.57;;;7.00;99.90;;;;;;5021032;28;20474;-50
2023/02/12 06:27:01;;;;;;;53.63;37.58;;;7.00;99.90;;;;;;5020773;28;20709;-49
2023/02/12 06:29:27;;;;;;;58.97;37.93;;;6.90;99.90;;;;;;5020272;28;20266;-47
2023/02/12 06:31:53;;;;;;;56.83;38.50;;;6.90;99.90;;;;;;5020047;28;20421;-45
2023/02/12 06:34:19;;;;;;;58.17;37.77;;;6.90;99.90;;;;;;5019585;28;20927;-48
2023/02/12 06:36:46;;;;;;;58.23;38.07;;;6.90;99.90;;;;;;5020399;28;20308;-46
2023/02/12 06:39:13;;;;;;;56.03;38.00;;;7.00;99.90;;;;;;5020213;28;20195;-49
2023/02/12 06:41:39;;;;;;;59.58;39.55;;;6.90;99.90;;;;;;5018486;28;20448;-46
2023/02/12 06:44:05;;;;;;;58.80;37.23;;;7.00;99.90;;;;;;5018446;28;20211;-46
2023/02/12 06:46:31;;;;;;;56.40;38.63;;;7.00;99.90;;;;;;5018459;28;20184;-50
2023/02/12 06:48:58;;;;;;;53.73;36.87;;;7.00;99.90;;;;;;5015684;28;20186;-49
2023/02/12 06:51:25;;;;;;;51.17;37.03;;;7.10;99.90;;;;;;5018892;28;20629;-47
2023/02/12 06:53:52;;;;;;;54.50;37.45;;;7.10;99.90;;;;;;5019236;28;20436;-45
2023/02/12 06:56:19;;;;;;;60.17;40.17;;;7.00;99.90;;;;;;5019470;28;20189;-45
2023/02/12 06:58:46;;;;;;;55.93;39.27;;;7.10;99.90;;;;;;5020181;28;20425;-45
2023/02/12 07:01:18;;;;;;;57.00;38.90;;;7.00;99.90;;;;;;5019523;28;20432;-45
2023/02/12 07:03:50;;;;;;;55.10;39.30;;;7.00;99.90;;;;;;5019387;28;20573;-43
2023/02/12 07:06:16;;;;;;;53.27;37.33;;;7.10;99.90;;;;;;5019586;28;20436;-50
2023/02/12 07:08:42;;;;;;;58.40;38.63;;;7.10;99.90;;;;;;5019412;28;20417;-43
2023/02/12 07:11:08;;;;;;;65.50;42.20;;;7.10;99.90;;;;;;5018050;28;20558;-46
2023/02/12 07:13:34;;;;;;;58.63;39.93;;;7.10;99.90;;;;;;5019184;28;20723;-44
2023/02/12 07:16:04;;;;;;;55.80;38.47;;;7.20;99.90;;;;;;5019614;28;20228;-49
2023/02/12 07:18:30;;;;;;;58.10;39.30;;;7.10;99.90;;;;;;5018988;28;20612;-43
2023/02/12 07:20:56;;;;;;;57.33;39.10;;;7.20;99.90;;;;;;5019012;28;20437;-47
2023/02/12 07:23:21;;;;;;;53.37;36.03;;;7.20;99.90;;;;;;5019868;28;20209;-47
2023/02/12 07:25:57;;;;;;;51.73;36.80;;;7.20;99.90;;;;;;5018855;28;20256;-46
2023/02/12 07:28:24;;;;;;;52.40;35.90;;;7.30;99.90;;;;;;5018676;28;21066;-46
2023/02/12 07:30:50;;;;;;;54.83;39.17;;;7.30;99.90;;;;;;5020288;28;20433;-47
2023/02/12 07:33:15;;;;;;;56.87;38.73;;;7.30;99.90;;;;;;5019659;28;20421;-46
2023/02/12 07:35:41;;;;;;;56.13;38.43;;;7.30;99.90;;;;;;5019515;28;20322;-43
2023/02/12 07:38:07;;;;;;;53.23;38.47;;;7.40;99.90;;;;;;5019718;28;20944;-42
2023/02/12 07:40:33;;;;;;;58.43;38.10;;;7.40;99.90;;;;;;5018761;28;20998;-43
2023/02/12 07:42:58;;;;;;;57.37;38.83;;;7.40;99.90;;;;;;5020066;28;20457;-48
2023/02/12 07:45:24;;;;;;;55.40;39.70;;;7.40;99.90;;;;;;5020521;28;20636;-48
2023/02/12 07:47:50;;;;;;;58.23;39.40;;;7.40;99.90;;;;;;5023896;28;20187;-46
2023/02/12 07:50:16;;;;;;;53.17;37.03;;;7.40;99.90;;;;;;5024104;28;21040;-46
2023/02/12 07:52:42;;;;;;;54.07;37.80;;;7.50;99.90;;;;;;5022799;28;20436;-45
2023/02/12 07:55:08;;;;;;;56.47;39.17;;;7.50;99.90;;;;;;5022903;28;20417;-43
2023/02/12 07:57:35;;;;;;;53.40;40.20;;;7.50;99.90;;;;;;5022630;28;20182;-47
2023/02/12 08:00:01;;;;;;;56.20;39.07;;;7.60;99.90;;;;;;5022227;28;20484;-46
2023/02/12 08:02:27;;;;;;;53.60;36.90;;;7.60;99.90;;;;;;5023517;28;20453;-46
2023/02/12 08:04:58;;;;;;;54.40;37.10;;;7.50;99.90;;;;;;5021601;28;20441;-46
2023/02/12 08:07:24;;;;;;;49.43;36.53;;;7.50;99.90;;;;;;5019030;28;20683;-44
2023/02/12 08:09:50;;;;;;;52.60;36.80;;;7.60;99.90;;;;;;5022334;28;20955;-46
2023/02/12 08:12:16;;;;;;;53.47;37.37;;;7.60;99.90;;;;;;5020689;28;20510;-45
2023/02/12 08:14:42;;;;;;;48.10;34.60;;;7.70;99.90;;;;;;5021825;28;20197;-43
2023/02/12 08:17:08;;;;;;;52.83;39.10;;;7.60;99.90;;;;;;5022189;28;20425;-47
2023/02/12 08:19:34;;;;;;;50.93;37.60;;;7.70;99.90;;;;;;5022387;28;20183;-43
2023/02/12 08:22:01;;;;;;;47.80;35.67;;;7.70;99.90;;;;;;5022893;28;20186;-47
2023/02/12 08:24:28;;;;;;;48.70;37.97;;;7.80;99.90;;;;;;5006484;28;20503;-44
2023/02/12 08:26:54;;;;;;;50.87;33.87;;;7.80;99.90;;;;;;5022696;28;21133;-48
2023/02/12 08:29:23;;;;;;;46.10;37.57;;;7.90;99.90;;;;;;5022731;28;20421;-48
2023/02/12 08:31:49;;;;;;;52.50;42.43;;;7.90;99.90;;;;;;5023490;28;20417;-47
2023/02/12 08:34:21;;;;;;;44.80;35.03;;;8.00;99.90;;;;;;5021824;28;20441;-45
2023/02/12 08:36:48;;;;;;;45.30;37.43;;;8.10;99.90;;;;;;5022865;28;20447;-44
2023/02/12 08:39:14;;;;;;;47.47;42.40;;;8.10;99.90;;;;;;5021678;28;20562;-45
2023/02/12 08:41:42;;;;;;;46.70;38.43;;;8.10;99.90;;;;;;5021975;28;20745;-45
2023/02/12 08:44:09;;;;;;;42.40;33.40;;;8.10;99.90;;;;;;5019202;28;20540;-46
2023/02/12 08:46:37;;;;;;;46.33;36.10;;;8.20;99.90;;;;;;5020868;28;20966;-51
2023/02/12 08:49:10;;;;;;;40.07;34.00;;;8.10;99.90;;;;;;5021444;28;20965;-49
2023/02/12 08:51:39;;;;;;;41.77;33.23;;;8.10;99.90;;;;;;5022887;28;20427;-48
2023/02/12 08:54:07;;;;;;;40.47;35.03;;;8.10;99.90;;;;;;5021707;28;20432;-44
2023/02/12 08:56:33;;;;;;;39.90;34.10;;;8.10;99.90;;;;;;5021846;28;20483;-46
2023/02/12 08:59:00;;;;;;;47.53;36.43;;;8.20;99.90;;;;;;5022581;28;20759;-48
2023/02/12 09:01:28;;;;;;;43.30;33.57;;;8.20;99.90;;;;;;5023192;28;20426;-48
2023/02/12 09:03:54;;;;;;;42.27;32.47;;;8.20;99.90;;;;;;5022224;28;20853;-45
2023/02/12 09:06:22;;;;;;;43.90;33.63;;;8.20;99.90;;;;;;5022719;28;20409;-46
2023/02/12 09:08:48;;;;;;;40.20;33.07;;;8.30;99.90;;;;;;5021753;28;20275;-49
2023/02/12 09:11:20;;;;;;;39.73;33.70;;;8.30;99.90;;;;;;5021882;28;20477;-46
2023/02/12 09:13:46;;;;;;;44.67;34.47;;;8.40;99.90;;;;;;5022155;28;20468;-45
2023/02/12 09:16:13;;;;;;;41.00;32.90;;;8.40;99.90;;;;;;5022613;28;20512;-43
2023/02/12 09:18:38;;;;;;;39.70;32.50;;;8.40;99.90;;;;;;5018990;28;20457;-46
2023/02/12 09:21:09;;;;;;;38.03;31.73;;;8.50;99.90;;;;;;5020637;28;20955;-45
2023/02/12 09:23:36;;;;;;;38.50;34.40;;;8.50;99.90;;;;;;5019294;28;20746;-44
2023/02/12 09:26:10;;;;;;;38.43;32.67;;;8.50;99.90;;;;;;5021251;28;20425;-45
2023/02/12 09:28:36;;;;;;;38.57;31.50;;;8.60;99.90;;;;;;5020833;28;20891;-51
2023/02/12 09:31:10;;;;;;;37.70;31.40;;;8.70;99.90;;;;;;5021369;28;20422;-46
2023/02/12 09:33:36;;;;;;;37.07;30.97;;;8.70;99.90;;;;;;5022266;28;20785;-46
2023/02/12 09:36:13;;;;;;;35.57;31.43;;;8.70;99.90;;;;;;5021787;28;20426;-46
2023/02/12 09:38:40;;;;;;;34.00;30.50;;;8.80;99.90;;;;;;5017893;28;20179;-50
2023/02/12 09:41:11;;;;;;;30.27;27.07;;;8.80;99.90;;;;;;5019677;28;20968;-47
2023/02/12 09:43:45;;;;;;;35.10;31.30;;;8.90;99.90;;;;;;5019583;28;21657;-51
2023/02/12 09:46:30;;;;;;;33.90;30.20;;;9.00;99.90;;;;;;5020703;28;20424;-49
2023/02/12 09:49:02;;;;;;;33.20;29.70;;;9.00;99.90;;;;;;5020472;28;20435;-44
2023/02/12 09:51:30;;;;;;;32.10;28.60;;;9.00;99.90;;;;;;5020355;28;21282;-47
2023/02/12 09:54:32;;;;;;;29.90;26.90;;;9.00;99.90;;;;;;5019529;28;20465;-44
2023/02/12 09:57:03;;;;;;;29.80;26.50;;;9.10;99.90;;;;;;5014114;28;20441;-46
2023/02/12 09:59:38;;;;;;;29.50;26.40;;;9.00;99.90;;;;;;5017552;28;20418;-49
2023/02/12 10:02:16;;;;;;;29.43;25.90;;;9.00;99.90;;;;;;5021219;28;20784;-45
2023/02/12 10:04:48;;;;;;;28.67;25.67;;;9.00;99.90;;;;;;5018913;28;20432;-46
2023/02/12 10:07:41;;;;;;;27.20;24.20;;;8.90;99.90;;;;;;5020565;28;20423;-45
2023/02/12 10:10:35;;;;;;;28.10;24.37;;;9.00;99.90;;;;;;5020679;28;20430;-46
2023/02/12 10:13:05;;;;;;;28.67;25.50;;;9.10;99.90;;;;;;5020992;28;20471;-47
2023/02/12 10:15:37;;;;;;;26.93;24.10;;;9.10;99.90;;;;;;5019696;28;20431;-48
2023/02/12 10:18:36;;;;;;;29.10;26.00;;;9.20;99.90;;;;;;5019282;28;20439;-48
2023/02/12 10:21:18;;;;;;;23.10;20.90;;;9.30;99.90;;;;;;5018016;28;20488;-47
2023/02/12 10:24:17;;;;;;;25.10;22.70;;;9.40;99.90;;;;;;5019219;28;20460;-44
2023/02/12 10:26:48;;;;;;;24.33;21.83;;;9.50;99.90;;;;;;5020574;28;20492;-46
2023/02/12 10:29:19;;;;;;;24.00;21.60;;;9.50;99.90;;;;;;5019519;28;21281;-47
2023/02/12 10:31:56;;;;;;;23.33;21.13;;;9.50;99.90;;;;;;5020475;28;20416;-46
2023/02/12 10:34:30;;;;;;;24.13;21.73;;;9.50;99.90;;;;;;5020015;28;20519;-42
2023/02/12 10:37:02;;;;;;;23.20;20.93;;;9.60;99.90;;;;;;5020630;28;21305;-46
2023/02/12 10:39:34;;;;;;;23.30;21.20;;;9.60;99.90;;;;;;5018700;28;20440;-47
2023/02/12 10:42:28;;;;;;;22.77;20.57;;;9.70;99.90;;;;;;5020250;28;20440;-49
2023/02/12 10:44:54;;;;;;;21.13;19.20;;;9.80;99.90;;;;;;5019947;28;20432;-48
2023/02/12 10:47:22;;;;;;;20.70;18.53;;;9.70;99.90;;;;;;5020315;28;20764;-44
2023/02/12 10:49:59;;;;;;;20.67;18.77;;;9.80;99.90;;;;;;5020571;28;20689;-44
2023/02/12 10:52:54;;;;;;;20.57;18.67;;;9.80;99.90;;;;;;5018769;28;20456;-46
2023/02/12 10:55:28;;;;;;;20.03;18.23;;;9.80;99.90;;;;;;5016318;28;20427;-50
2023/02/12 10:57:54;;;;;;;20.03;18.33;;;9.70;99.90;;;;;;5020037;28;20425;-46
2023/02/12 11:00:37;;;;;;;21.23;19.23;;;9.70;99.90;;;;;;5019397;28;20408;-48
2023/02/12 11:03:11;;;;;;;18.37;16.63;;;9.80;99.90;;;;;;5020295;28;20472;-49
2023/02/12 11:05:39;;;;;;;22.17;20.17;;;9.80;99.90;;;;;;5019474;28;20770;-48
2023/02/12 11:08:05;;;;;;;20.30;17.80;;;9.80;99.90;;;;;;5018578;28;20619;-49
2023/02/12 11:10:38;;;;;;;18.60;16.87;;;9.90;99.90;;;;;;5017896;28;21454;-52
2023/02/12 11:13:05;;;;;;;19.17;17.47;;;9.90;99.90;;;;;;5019917;28;20484;-48
2023/02/12 11:15:46;;;;;;;20.50;18.33;;;10.00;99.90;;;;;;5018998;28;20428;-51
2023/02/12 11:18:24;;;;;;;21.13;18.93;;;10.00;99.90;;;;;;5020015;28;20905;-50
2023/02/12 11:20:54;;;;;;;19.60;17.80;;;10.20;99.90;;;;;;5018645;28;20504;-50
2023/02/12 11:23:24;;;;;;;19.57;17.67;;;10.20;99.90;;;;;;5019060;28;20501;-51
2023/02/12 11:26:03;;;;;;;18.37;16.63;;;10.40;99.90;;;;;;5019851;28;20511;-49
2023/02/12 11:28:30;;;;;;;18.10;16.57;;;10.40;99.90;;;;;;5019521;28;20428;-49
2023/02/12 11:30:56;;;;;;;18.70;17.00;;;10.60;99.90;;;;;;5019154;28;20443;-45
2023/02/12 11:33:34;;;;;;;23.60;21.30;;;10.70;99.90;;;;;;5019840;28;20512;-44
2023/02/12 11:36:02;;;;;;;22.33;20.13;;;10.80;99.90;;;;;;5018996;28;20182;-50
2023/02/12 11:38:34;;;;;;;19.57;17.67;;;10.80;99.90;;;;;;5018268;28;20430;-45
2023/02/12 11:41:16;;;;;;;18.77;17.07;;;10.80;99.90;;;;;;5019487;28;20418;-45
2023/02/12 11:43:42;;;;;;;17.93;16.23;;;10.70;99.90;;;;;;5019797;28;20572;-45
2023/02/12 11:46:07;;;;;;;18.77;17.33;;;10.70;99.90;;;;;;5019250;28;20446;-49
2023/02/12 11:48:38;;;;;;;18.10;16.57;;;10.70;99.90;;;;;;5019538;28;20241;-49
2023/02/12 11:51:08;;;;;;;18.57;16.97;;;10.70;99.90;;;;;;5019129;28;20186;-48
2023/02/12 11:53:39;;;;;;;23.40;21.40;;;10.70;99.90;;;;;;5018815;28;20425;-45
2023/02/12 11:56:10;;;;;;;17.67;16.20;;;10.70;99.90;;;;;;5019997;28;20509;-49
2023/02/12 11:58:36;;;;;;;17.73;16.10;;;10.80;99.90;;;;;;5018610;28;20811;-48
2023/02/12 12:01:05;;;;;;;17.00;15.53;;;10.80;99.90;;;;;;5019030;28;20424;-52
2023/02/12 12:03:59;;;;;;;15.80;14.50;;;10.80;99.90;;;;;;5018966;28;21804;-48
2023/02/12 12:06:34;;;;;;;17.00;15.60;;;10.90;99.90;;;;;;5019558;28;20432;-49
2023/02/12 12:09:12;;;;;;;17.80;16.30;;;10.70;99.90;;;;;;5018905;28;20483;-49
2023/02/12 12:11:58;;;;;;;17.30;15.60;;;10.60;99.90;;;;;;5018366;28;20511;-48
2023/02/12 12:14:30;;;;;;;17.27;15.68;;;10.60;99.90;;;;;;5017538;28;20501;-48
2023/02/12 12:20:30;;;;;;;16.93;15.53;;;10.80;99.90;;;;;;5018870;28;20571;-55
2023/02/12 12:23:04;;;;;;;17.40;15.97;;;10.80;99.90;;;;;;5016910;28;20542;-51
2023/02/12 12:25:46;;;;;;;17.00;15.50;;;10.80;99.90;;;;;;5017204;28;20502;-50
2023/02/12 12:28:43;;;;;;;17.17;15.70;;;10.70;99.90;;;;;;5019244;28;21055;-48
2023/02/12 12:31:11;;;;;;;17.87;16.30;;;10.60;99.90;;;;;;5014776;28;20436;-48
2023/02/12 12:33:39;;;;;;;15.93;14.53;;;10.60;99.90;;;;;;5022061;28;20516;-47
2023/02/12 12:36:23;;;;;;;17.83;16.40;;;10.60;99.90;;;;;;5022107;28;20429;-47
2023/02/12 12:39:20;;;;;;;16.57;15.07;;;10.60;99.90;;;;;;5021423;28;20441;-50
2023/02/12 12:41:54;;;;;;;16.50;15.07;;;10.60;99.90;;;;;;5022595;28;20468;-49
2023/02/12 12:44:50;;;;;;;16.50;15.00;;;10.50;99.90;;;;;;5023181;28;21391;-45
2023/02/12 12:47:32;;;;;;;16.13;14.53;;;10.50;99.90;;;;;;5022869;28;20456;-43
2023/02/12 12:50:17;;;;;;;17.60;15.83;;;10.40;99.90;;;;;;5022512;28;21130;-44
2023/02/12 12:53:01;;;;;;;16.90;15.40;;;10.30;99.90;;;;;;5022871;28;21440;-46
2023/02/12 12:55:45;;;;;;;15.40;14.30;;;10.20;99.90;;;;;;5022589;28;20435;-41
2023/02/12 12:58:30;;;;;;;16.53;15.23;;;10.10;99.90;;;;;;5021575;28;21419;-42
2023/02/12 13:01:23;;;;;;;15.10;13.80;;;10.00;99.90;;;;;;5022560;28;20434;-43
2023/02/12 13:04:10;;;;;;;19.37;17.37;;;9.90;99.90;;;;;;5022319;28;20904;-43